sensor_id;sensor_type;location;lat;lon;timestamp;P1;durP1;ratioP1;P2;durP2;ratioP2
24147;SDS011;12309;51.450;-2.624;2023-03-31T00:01:38;11.37;;;1.37;;
24147;SDS011;12309;51.450;-2.624;2023-03-31T00:04:06;12.03;;;1.83;;
24147;SDS011;12309;51.450;-2.624;2023-03-31T00:06:37;3.73;;;0.80;;
24147;SDS011;12309;51.450;-2.624;2023-03-31T00:09:15;2.67;;;0.90;;
24147;SDS011;12309;51.450;-2.624;2023-03-31T00:11:46;4.27;;;0.80;;
24147;SDS011;12309;51.450;-2.624;2023-03-31T00:14:13;3.53;;;1.00;;
24147;SDS011;12309;51.450;-2.624;2023-03-31T00:16:42;5.93;;;1.17;;
24147;SDS011;12309;51.450;-2.624;2023-03-31T00:19:08;7.40;;;1.50;;
24147;SDS011;12309;51.450;-2.624;2023-03-31T00:21:42;5.67;;;1.40;;
24147;SDS011;12309;51.450;-2.624;2023-03-31T00:24:08;4.27;;;1.10;;
24147;SDS011;12309;51.450;-2.624;2023-03-31T00:26:35;9.73;;;1.70;;
24147;SDS011;12309;51.450;-2.624;2023-03-31T00:29:01;12.37;;;1.60;;
24147;SDS011;12309;51.450;-2.624;2023-03-31T00:31:28;9.30;;;2.43;;
24147;SDS011;12309;51.450;-2.624;2023-03-31T00:33:54;9.23;;;1.63;;
24147;SDS011;12309;51.450;-2.624;2023-03-31T00:36:20;14.40;;;2.53;;
24147;SDS011;12309;51.450;-2.624;2023-03-31T00:38:51;23.20;;;3.57;;
24147;SDS011;12309;51.450;-2.624;2023-03-31T00:41:23;24.60;;;3.60;;
24147;SDS011;12309;51.450;-2.624;2023-03-31T00:46:32;22.47;;;4.60;;
24147;SDS011;12309;51.450;-2.624;2023-03-31T00:49:01;25.60;;;4.23;;
24147;SDS011;12309;51.450;-2.624;2023-03-31T00:51:28;20.77;;;3.40;;
24147;SDS011;12309;51.450;-2.624;2023-03-31T00:53:59;16.77;;;2.80;;
24147;SDS011;12309;51.450;-2.624;2023-03-31T00:56:29;20.63;;;4.17;;
24147;SDS011;12309;51.450;-2.624;2023-03-31T00:59:00;27.77;;;4.50;;
24147;SDS011;12309;51.450;-2.624;2023-03-31T01:01:27;18.00;;;3.70;;
24147;SDS011;12309;51.450;-2.624;2023-03-31T01:03:54;20.43;;;3.10;;
24147;SDS011;12309;51.450;-2.624;2023-03-31T01:06:21;14.97;;;2.83;;
24147;SDS011;12309;51.450;-2.624;2023-03-31T01:08:50;14.80;;;2.63;;
24147;SDS011;12309;51.450;-2.624;2023-03-31T01:11:17;11.63;;;2.70;;
24147;SDS011;12309;51.450;-2.624;2023-03-31T01:13:44;11.30;;;2.33;;
24147;SDS011;12309;51.450;-2.624;2023-03-31T01:16:14;15.13;;;2.30;;
24147;SDS011;12309;51.450;-2.624;2023-03-31T01:18:40;11.97;;;1.97;;
24147;SDS011;12309;51.450;-2.624;2023-03-31T01:33:01;25.53;;;3.63;;
24147;SDS011;12309;51.450;-2.624;2023-03-31T01:46:01;29.03;;;4.03;;
24147;SDS011;12309;51.450;-2.624;2023-03-31T01:54:22;31.63;;;5.20;;
24147;SDS011;12309;51.450;-2.624;2023-03-31T01:56:57;30.83;;;4.10;;
24147;SDS011;12309;51.450;-2.624;2023-03-31T02:00:04;23.00;;;4.10;;
24147;SDS011;12309;51.450;-2.624;2023-03-31T02:03:03;23.80;;;4.57;;
24147;SDS011;12309;51.450;-2.624;2023-03-31T02:05:36;26.77;;;3.70;;
24147;SDS011;12309;51.450;-2.624;2023-03-31T02:08:07;28.77;;;3.93;;
24147;SDS011;12309;51.450;-2.624;2023-03-31T02:10:38;24.80;;;4.23;;
24147;SDS011;12309;51.450;-2.624;2023-03-31T02:13:06;27.43;;;5.10;;
24147;SDS011;12309;51.450;-2.624;2023-03-31T02:15:36;16.00;;;3.20;;
24147;SDS011;12309;51.450;-2.624;2023-03-31T02:18:05;27.07;;;4.27;;
24147;SDS011;12309;51.450;-2.624;2023-03-31T02:20:36;27.17;;;3.80;;
24147;SDS011;12309;51.450;-2.624;2023-03-31T02:23:06;27.33;;;4.30;;
24147;SDS011;12309;51.450;-2.624;2023-03-31T02:25:37;21.67;;;3.90;;
24147;SDS011;12309;51.450;-2.624;2023-03-31T02:28:18;22.83;;;4.30;;
24147;SDS011;12309;51.450;-2.624;2023-03-31T02:33:14;22.53;;;3.60;;
24147;SDS011;12309;51.450;-2.624;2023-03-31T02:35:41;22.77;;;3.43;;
24147;SDS011;12309;51.450;-2.624;2023-03-31T02:38:07;22.13;;;3.30;;
24147;SDS011;12309;51.450;-2.624;2023-03-31T02:40:33;16.93;;;2.93;;
24147;SDS011;12309;51.450;-2.624;2023-03-31T02:42:59;16.77;;;2.87;;
24147;SDS011;12309;51.450;-2.624;2023-03-31T02:56:45;9.63;;;2.00;;
24147;SDS011;12309;51.450;-2.624;2023-03-31T03:07:23;11.10;;;1.70;;
24147;SDS011;12309;51.450;-2.624;2023-03-31T03:10:08;6.63;;;1.13;;
24147;SDS011;12309;51.450;-2.624;2023-03-31T03:18:15;8.53;;;1.30;;
24147;SDS011;12309;51.450;-2.624;2023-03-31T03:20:41;8.60;;;1.33;;
24147;SDS011;12309;51.450;-2.624;2023-03-31T03:23:12;6.90;;;1.23;;
24147;SDS011;12309;51.450;-2.624;2023-03-31T03:25:38;12.10;;;1.37;;
24147;SDS011;12309;51.450;-2.624;2023-03-31T03:28:04;9.67;;;1.97;;
24147;SDS011;12309;51.450;-2.624;2023-03-31T03:30:31;10.03;;;1.53;;
24147;SDS011;12309;51.450;-2.624;2023-03-31T03:32:56;6.57;;;1.17;;
24147;SDS011;12309;51.450;-2.624;2023-03-31T03:35:23;9.30;;;1.70;;
24147;SDS011;12309;51.450;-2.624;2023-03-31T03:37:48;12.77;;;2.10;;
24147;SDS011;12309;51.450;-2.624;2023-03-31T03:40:14;6.83;;;1.17;;
24147;SDS011;12309;51.450;-2.624;2023-03-31T03:42:40;9.07;;;1.60;;
24147;SDS011;12309;51.450;-2.624;2023-03-31T03:45:06;15.70;;;2.40;;
24147;SDS011;12309;51.450;-2.624;2023-03-31T03:47:32;11.37;;;2.20;;
24147;SDS011;12309;51.450;-2.624;2023-03-31T03:49:57;16.53;;;2.40;;
24147;SDS011;12309;51.450;-2.624;2023-03-31T03:52:23;13.17;;;2.60;;
24147;SDS011;12309;51.450;-2.624;2023-03-31T03:54:48;16.70;;;3.00;;
24147;SDS011;12309;51.450;-2.624;2023-03-31T03:57:14;10.27;;;2.17;;
24147;SDS011;12309;51.450;-2.624;2023-03-31T03:59:40;18.23;;;2.97;;
24147;SDS011;12309;51.450;-2.624;2023-03-31T04:02:06;8.80;;;1.67;;
24147;SDS011;12309;51.450;-2.624;2023-03-31T04:04:31;12.43;;;2.50;;
24147;SDS011;12309;51.450;-2.624;2023-03-31T04:06:57;14.53;;;2.17;;
24147;SDS011;12309;51.450;-2.624;2023-03-31T04:09:23;11.80;;;1.70;;
24147;SDS011;12309;51.450;-2.624;2023-03-31T04:11:48;13.93;;;2.50;;
24147;SDS011;12309;51.450;-2.624;2023-03-31T04:14:14;14.43;;;2.17;;
24147;SDS011;12309;51.450;-2.624;2023-03-31T04:16:40;16.10;;;2.77;;
24147;SDS011;12309;51.450;-2.624;2023-03-31T04:19:06;7.40;;;1.47;;
24147;SDS011;12309;51.450;-2.624;2023-03-31T04:21:32;12.93;;;2.27;;
24147;SDS011;12309;51.450;-2.624;2023-03-31T04:23:59;16.70;;;2.30;;
24147;SDS011;12309;51.450;-2.624;2023-03-31T04:26:32;24.40;;;2.53;;
24147;SDS011;12309;51.450;-2.624;2023-03-31T04:29:10;12.10;;;2.17;;
24147;SDS011;12309;51.450;-2.624;2023-03-31T04:31:37;12.67;;;2.57;;
24147;SDS011;12309;51.450;-2.624;2023-03-31T04:34:06;14.27;;;2.10;;
24147;SDS011;12309;51.450;-2.624;2023-03-31T04:36:37;11.87;;;2.30;;
24147;SDS011;12309;51.450;-2.624;2023-03-31T04:39:13;9.50;;;2.13;;
24147;SDS011;12309;51.450;-2.624;2023-03-31T04:41:50;9.23;;;1.53;;
24147;SDS011;12309;51.450;-2.624;2023-03-31T04:44:19;9.03;;;2.27;;
24147;SDS011;12309;51.450;-2.624;2023-03-31T04:46:44;15.93;;;2.27;;
24147;SDS011;12309;51.450;-2.624;2023-03-31T04:49:10;14.57;;;1.87;;
24147;SDS011;12309;51.450;-2.624;2023-03-31T04:51:36;10.87;;;1.53;;
24147;SDS011;12309;51.450;-2.624;2023-03-31T04:54:01;13.93;;;2.07;;
24147;SDS011;12309;51.450;-2.624;2023-03-31T04:56:27;9.07;;;1.63;;
24147;SDS011;12309;51.450;-2.624;2023-03-31T04:58:52;8.13;;;1.30;;
24147;SDS011;12309;51.450;-2.624;2023-03-31T05:01:18;9.83;;;1.43;;
24147;SDS011;12309;51.450;-2.624;2023-03-31T05:03:45;6.43;;;1.23;;
24147;SDS011;12309;51.450;-2.624;2023-03-31T05:06:12;8.93;;;1.47;;
24147;SDS011;12309;51.450;-2.624;2023-03-31T05:08:38;5.03;;;1.57;;
24147;SDS011;12309;51.450;-2.624;2023-03-31T05:11:04;7.17;;;1.47;;
24147;SDS011;12309;51.450;-2.624;2023-03-31T05:13:30;8.67;;;1.43;;
24147;SDS011;12309;51.450;-2.624;2023-03-31T05:15:56;7.70;;;1.37;;
24147;SDS011;12309;51.450;-2.624;2023-03-31T05:18:22;6.83;;;1.40;;
24147;SDS011;12309;51.450;-2.624;2023-03-31T05:20:48;8.70;;;1.37;;
24147;SDS011;12309;51.450;-2.624;2023-03-31T05:23:13;5.93;;;1.20;;
24147;SDS011;12309;51.450;-2.624;2023-03-31T05:25:39;12.30;;;1.43;;
24147;SDS011;12309;51.450;-2.624;2023-03-31T05:28:06;6.37;;;1.00;;
24147;SDS011;12309;51.450;-2.624;2023-03-31T05:30:33;9.77;;;1.50;;
24147;SDS011;12309;51.450;-2.624;2023-03-31T05:32:59;6.80;;;1.40;;
24147;SDS011;12309;51.450;-2.624;2023-03-31T05:35:25;10.87;;;1.87;;
24147;SDS011;12309;51.450;-2.624;2023-03-31T05:37:51;9.83;;;1.53;;
24147;SDS011;12309;51.450;-2.624;2023-03-31T05:40:17;13.70;;;2.50;;
24147;SDS011;12309;51.450;-2.624;2023-03-31T05:42:43;5.43;;;1.17;;
24147;SDS011;12309;51.450;-2.624;2023-03-31T05:45:08;10.17;;;1.63;;
24147;SDS011;12309;51.450;-2.624;2023-03-31T05:47:34;10.17;;;1.67;;
24147;SDS011;12309;51.450;-2.624;2023-03-31T05:50:00;14.83;;;1.90;;
24147;SDS011;12309;51.450;-2.624;2023-03-31T05:52:31;9.50;;;1.57;;
24147;SDS011;12309;51.450;-2.624;2023-03-31T05:54:57;10.83;;;2.07;;
24147;SDS011;12309;51.450;-2.624;2023-03-31T05:57:22;9.50;;;1.90;;
24147;SDS011;12309;51.450;-2.624;2023-03-31T05:59:48;10.63;;;1.73;;
24147;SDS011;12309;51.450;-2.624;2023-03-31T06:02:13;3.90;;;1.03;;
24147;SDS011;12309;51.450;-2.624;2023-03-31T06:04:39;6.73;;;1.27;;
24147;SDS011;12309;51.450;-2.624;2023-03-31T06:07:06;5.17;;;0.87;;
24147;SDS011;12309;51.450;-2.624;2023-03-31T06:09:32;4.13;;;1.00;;
24147;SDS011;12309;51.450;-2.624;2023-03-31T06:11:57;7.53;;;1.37;;
24147;SDS011;12309;51.450;-2.624;2023-03-31T06:14:23;5.70;;;1.00;;
24147;SDS011;12309;51.450;-2.624;2023-03-31T06:16:49;5.13;;;0.80;;
24147;SDS011;12309;51.450;-2.624;2023-03-31T06:19:14;9.53;;;1.03;;
24147;SDS011;12309;51.450;-2.624;2023-03-31T06:21:40;5.73;;;1.33;;
24147;SDS011;12309;51.450;-2.624;2023-03-31T06:24:07;6.97;;;1.50;;
24147;SDS011;12309;51.450;-2.624;2023-03-31T06:26:33;7.87;;;1.50;;
24147;SDS011;12309;51.450;-2.624;2023-03-31T06:28:59;10.87;;;1.57;;
24147;SDS011;12309;51.450;-2.624;2023-03-31T06:31:24;9.90;;;1.73;;
24147;SDS011;12309;51.450;-2.624;2023-03-31T06:33:50;8.23;;;1.33;;
24147;SDS011;12309;51.450;-2.624;2023-03-31T06:36:18;6.60;;;1.10;;
24147;SDS011;12309;51.450;-2.624;2023-03-31T06:38:45;6.83;;;1.43;;
24147;SDS011;12309;51.450;-2.624;2023-03-31T06:41:12;9.97;;;1.63;;
24147;SDS011;12309;51.450;-2.624;2023-03-31T06:43:39;6.40;;;1.13;;
24147;SDS011;12309;51.450;-2.624;2023-03-31T06:46:05;7.10;;;1.50;;
24147;SDS011;12309;51.450;-2.624;2023-03-31T06:48:31;5.97;;;1.27;;
24147;SDS011;12309;51.450;-2.624;2023-03-31T06:51:01;8.10;;;1.13;;
24147;SDS011;12309;51.450;-2.624;2023-03-31T06:53:28;11.33;;;2.20;;
24147;SDS011;12309;51.450;-2.624;2023-03-31T06:55:54;8.20;;;1.50;;
24147;SDS011;12309;51.450;-2.624;2023-03-31T06:58:20;6.57;;;1.40;;
24147;SDS011;12309;51.450;-2.624;2023-03-31T07:00:46;5.97;;;1.13;;
24147;SDS011;12309;51.450;-2.624;2023-03-31T07:03:12;13.30;;;1.73;;
24147;SDS011;12309;51.450;-2.624;2023-03-31T07:05:38;9.20;;;1.80;;
24147;SDS011;12309;51.450;-2.624;2023-03-31T07:08:03;9.17;;;1.57;;
24147;SDS011;12309;51.450;-2.624;2023-03-31T07:10:30;7.00;;;1.50;;
24147;SDS011;12309;51.450;-2.624;2023-03-31T07:12:56;9.27;;;1.87;;
24147;SDS011;12309;51.450;-2.624;2023-03-31T07:15:22;6.77;;;1.17;;
24147;SDS011;12309;51.450;-2.624;2023-03-31T07:17:48;14.83;;;1.80;;
24147;SDS011;12309;51.450;-2.624;2023-03-31T07:20:18;8.23;;;1.60;;
24147;SDS011;12309;51.450;-2.624;2023-03-31T07:22:45;9.97;;;1.63;;
24147;SDS011;12309;51.450;-2.624;2023-03-31T07:25:14;5.90;;;1.27;;
24147;SDS011;12309;51.450;-2.624;2023-03-31T07:27:41;8.93;;;1.93;;
24147;SDS011;12309;51.450;-2.624;2023-03-31T07:30:08;9.80;;;1.63;;
24147;SDS011;12309;51.450;-2.624;2023-03-31T07:32:41;12.90;;;2.07;;
24147;SDS011;12309;51.450;-2.624;2023-03-31T07:35:07;9.53;;;1.50;;
24147;SDS011;12309;51.450;-2.624;2023-03-31T07:37:36;12.53;;;1.73;;
24147;SDS011;12309;51.450;-2.624;2023-03-31T07:40:06;10.60;;;1.60;;
24147;SDS011;12309;51.450;-2.624;2023-03-31T07:42:33;9.93;;;1.80;;
24147;SDS011;12309;51.450;-2.624;2023-03-31T07:45:00;4.73;;;0.93;;
24147;SDS011;12309;51.450;-2.624;2023-03-31T07:47:26;5.77;;;1.40;;
24147;SDS011;12309;51.450;-2.624;2023-03-31T07:49:52;12.50;;;1.97;;
24147;SDS011;12309;51.450;-2.624;2023-03-31T07:52:18;7.13;;;1.97;;
24147;SDS011;12309;51.450;-2.624;2023-03-31T07:54:44;9.50;;;1.60;;
24147;SDS011;12309;51.450;-2.624;2023-03-31T07:57:11;9.33;;;1.63;;
24147;SDS011;12309;51.450;-2.624;2023-03-31T07:59:37;9.87;;;1.87;;
24147;SDS011;12309;51.450;-2.624;2023-03-31T08:02:02;8.60;;;1.43;;
24147;SDS011;12309;51.450;-2.624;2023-03-31T08:04:28;8.00;;;1.70;;
24147;SDS011;12309;51.450;-2.624;2023-03-31T08:06:53;6.43;;;1.70;;
24147;SDS011;12309;51.450;-2.624;2023-03-31T08:09:19;11.93;;;2.00;;
24147;SDS011;12309;51.450;-2.624;2023-03-31T08:11:46;8.73;;;1.90;;
24147;SDS011;12309;51.450;-2.624;2023-03-31T08:14:12;9.40;;;1.80;;
24147;SDS011;12309;51.450;-2.624;2023-03-31T08:16:38;10.10;;;1.80;;
24147;SDS011;12309;51.450;-2.624;2023-03-31T08:19:04;8.40;;;1.57;;
24147;SDS011;12309;51.450;-2.624;2023-03-31T08:21:30;3.50;;;1.40;;
24147;SDS011;12309;51.450;-2.624;2023-03-31T08:23:56;11.17;;;1.80;;
24147;SDS011;12309;51.450;-2.624;2023-03-31T08:26:22;5.20;;;1.50;;
24147;SDS011;12309;51.450;-2.624;2023-03-31T08:28:49;5.10;;;1.10;;
24147;SDS011;12309;51.450;-2.624;2023-03-31T08:31:16;8.70;;;1.30;;
24147;SDS011;12309;51.450;-2.624;2023-03-31T08:33:44;5.63;;;1.30;;
24147;SDS011;12309;51.450;-2.624;2023-03-31T08:36:10;3.23;;;1.10;;
24147;SDS011;12309;51.450;-2.624;2023-03-31T08:38:36;5.80;;;1.03;;
24147;SDS011;12309;51.450;-2.624;2023-03-31T08:41:03;2.50;;;1.10;;
24147;SDS011;12309;51.450;-2.624;2023-03-31T08:43:41;4.43;;;1.23;;
24147;SDS011;12309;51.450;-2.624;2023-03-31T08:46:10;3.23;;;1.20;;
24147;SDS011;12309;51.450;-2.624;2023-03-31T08:48:41;5.03;;;1.50;;
24147;SDS011;12309;51.450;-2.624;2023-03-31T08:51:23;4.73;;;1.40;;
24147;SDS011;12309;51.450;-2.624;2023-03-31T08:56:46;2.23;;;1.50;;
24147;SDS011;12309;51.450;-2.624;2023-03-31T08:59:27;6.50;;;1.50;;
24147;SDS011;12309;51.450;-2.624;2023-03-31T09:18:18;7.63;;;3.27;;
24147;SDS011;12309;51.450;-2.624;2023-03-31T09:21:04;12.23;;;3.50;;
24147;SDS011;12309;51.450;-2.624;2023-03-31T09:23:52;10.80;;;3.60;;
24147;SDS011;12309;51.450;-2.624;2023-03-31T09:28:53;8.83;;;3.10;;
24147;SDS011;12309;51.450;-2.624;2023-03-31T09:31:22;5.73;;;2.33;;
24147;SDS011;12309;51.450;-2.624;2023-03-31T09:33:50;9.83;;;2.90;;
24147;SDS011;12309;51.450;-2.624;2023-03-31T09:36:19;6.60;;;2.33;;
24147;SDS011;12309;51.450;-2.624;2023-03-31T09:38:48;8.77;;;2.40;;
24147;SDS011;12309;51.450;-2.624;2023-03-31T09:41:15;7.93;;;2.30;;
24147;SDS011;12309;51.450;-2.624;2023-03-31T09:43:42;5.33;;;1.90;;
24147;SDS011;12309;51.450;-2.624;2023-03-31T09:46:29;8.17;;;1.97;;
24147;SDS011;12309;51.450;-2.624;2023-03-31T09:49:14;7.70;;;1.70;;
24147;SDS011;12309;51.450;-2.624;2023-03-31T09:51:45;5.80;;;1.37;;
24147;SDS011;12309;51.450;-2.624;2023-03-31T09:54:26;3.83;;;1.17;;
24147;SDS011;12309;51.450;-2.624;2023-03-31T09:56:57;3.43;;;1.20;;
24147;SDS011;12309;51.450;-2.624;2023-03-31T09:59:33;5.33;;;1.23;;
24147;SDS011;12309;51.450;-2.624;2023-03-31T10:02:05;3.40;;;1.30;;
24147;SDS011;12309;51.450;-2.624;2023-03-31T10:04:53;4.20;;;0.80;;
24147;SDS011;12309;51.450;-2.624;2023-03-31T10:07:19;2.27;;;0.90;;
24147;SDS011;12309;51.450;-2.624;2023-03-31T10:09:47;5.23;;;1.10;;
24147;SDS011;12309;51.450;-2.624;2023-03-31T10:12:14;5.30;;;0.80;;
24147;SDS011;12309;51.450;-2.624;2023-03-31T10:14:48;5.70;;;0.80;;
24147;SDS011;12309;51.450;-2.624;2023-03-31T10:17:16;3.47;;;0.80;;
24147;SDS011;12309;51.450;-2.624;2023-03-31T10:19:47;1.50;;;0.60;;
24147;SDS011;12309;51.450;-2.624;2023-03-31T10:22:34;2.47;;;0.83;;
24147;SDS011;12309;51.450;-2.624;2023-03-31T10:25:15;3.00;;;0.80;;
24147;SDS011;12309;51.450;-2.624;2023-03-31T10:27:52;5.53;;;1.37;;
24147;SDS011;12309;51.450;-2.624;2023-03-31T10:30:21;2.77;;;0.83;;
24147;SDS011;12309;51.450;-2.624;2023-03-31T10:32:52;3.73;;;1.03;;
24147;SDS011;12309;51.450;-2.624;2023-03-31T10:35:23;4.73;;;1.13;;
24147;SDS011;12309;51.450;-2.624;2023-03-31T10:37:54;3.43;;;1.00;;
24147;SDS011;12309;51.450;-2.624;2023-03-31T10:40:23;3.60;;;1.23;;
24147;SDS011;12309;51.450;-2.624;2023-03-31T10:43:02;4.23;;;1.40;;
24147;SDS011;12309;51.450;-2.624;2023-03-31T10:45:46;7.73;;;1.70;;
24147;SDS011;12309;51.450;-2.624;2023-03-31T10:48:18;5.00;;;1.80;;
24147;SDS011;12309;51.450;-2.624;2023-03-31T10:50:52;3.93;;;1.80;;
24147;SDS011;12309;51.450;-2.624;2023-03-31T10:53:22;4.35;;;1.98;;
24147;SDS011;12309;51.450;-2.624;2023-03-31T10:55:57;8.18;;;2.05;;
24147;SDS011;12309;51.450;-2.624;2023-03-31T11:04:30;3.90;;;0.80;;
24147;SDS011;12309;51.450;-2.624;2023-03-31T11:17:16;6.27;;;1.30;;
24147;SDS011;12309;51.450;-2.624;2023-03-31T11:19:53;3.77;;;0.87;;
24147;SDS011;12309;51.450;-2.624;2023-03-31T11:26:04;6.23;;;1.37;;
24147;SDS011;12309;51.450;-2.624;2023-03-31T11:43:57;10.27;;;1.70;;
24147;SDS011;12309;51.450;-2.624;2023-03-31T11:46:31;13.77;;;1.93;;
24147;SDS011;12309;51.450;-2.624;2023-03-31T11:49:13;8.43;;;1.97;;
24147;SDS011;12309;51.450;-2.624;2023-03-31T11:52:05;9.27;;;1.57;;
24147;SDS011;12309;51.450;-2.624;2023-03-31T11:57:31;7.60;;;1.20;;
24147;SDS011;12309;51.450;-2.624;2023-03-31T12:00:10;5.93;;;1.10;;
24147;SDS011;12309;51.450;-2.624;2023-03-31T12:02:45;7.83;;;1.47;;
24147;SDS011;12309;51.450;-2.624;2023-03-31T12:05:41;8.70;;;1.53;;
24147;SDS011;12309;51.450;-2.624;2023-03-31T12:08:28;8.10;;;1.87;;
24147;SDS011;12309;51.450;-2.624;2023-03-31T12:11:16;6.47;;;1.43;;
24147;SDS011;12309;51.450;-2.624;2023-03-31T12:13:56;8.87;;;1.80;;
24147;SDS011;12309;51.450;-2.624;2023-03-31T12:16:37;15.50;;;1.37;;
24147;SDS011;12309;51.450;-2.624;2023-03-31T12:19:17;10.80;;;1.67;;
24147;SDS011;12309;51.450;-2.624;2023-03-31T12:21:54;7.20;;;1.43;;
24147;SDS011;12309;51.450;-2.624;2023-03-31T12:24:28;6.50;;;1.47;;
24147;SDS011;12309;51.450;-2.624;2023-03-31T12:26:58;6.10;;;1.00;;
24147;SDS011;12309;51.450;-2.624;2023-03-31T12:29:41;6.30;;;1.63;;
24147;SDS011;12309;51.450;-2.624;2023-03-31T12:32:18;10.17;;;2.03;;
24147;SDS011;12309;51.450;-2.624;2023-03-31T12:34:52;6.83;;;1.80;;
24147;SDS011;12309;51.450;-2.624;2023-03-31T12:45:36;6.10;;;1.43;;
24147;SDS011;12309;51.450;-2.624;2023-03-31T12:55:59;3.83;;;0.90;;
24147;SDS011;12309;51.450;-2.624;2023-03-31T13:01:06;6.90;;;1.03;;
24147;SDS011;12309;51.450;-2.624;2023-03-31T13:11:51;6.47;;;1.20;;
24147;SDS011;12309;51.450;-2.624;2023-03-31T13:16:51;7.87;;;1.40;;
24147;SDS011;12309;51.450;-2.624;2023-03-31T13:19:26;9.17;;;1.23;;
24147;SDS011;12309;51.450;-2.624;2023-03-31T13:21:57;8.77;;;1.67;;
24147;SDS011;12309;51.450;-2.624;2023-03-31T13:24:24;9.13;;;1.27;;
24147;SDS011;12309;51.450;-2.624;2023-03-31T13:26:52;12.13;;;1.63;;
24147;SDS011;12309;51.450;-2.624;2023-03-31T13:34:25;12.27;;;1.70;;
24147;SDS011;12309;51.450;-2.624;2023-03-31T13:36:58;5.63;;;1.23;;
24147;SDS011;12309;51.450;-2.624;2023-03-31T13:43:03;7.53;;;1.60;;
24147;SDS011;12309;51.450;-2.624;2023-03-31T13:45:51;5.07;;;1.40;;
24147;SDS011;12309;51.450;-2.624;2023-03-31T13:51:59;9.37;;;1.60;;
24147;SDS011;12309;51.450;-2.624;2023-03-31T13:54:42;8.10;;;1.60;;
24147;SDS011;12309;51.450;-2.624;2023-03-31T13:57:26;10.17;;;1.30;;
24147;SDS011;12309;51.450;-2.624;2023-03-31T14:06:05;8.87;;;1.43;;
24147;SDS011;12309;51.450;-2.624;2023-03-31T14:11:38;4.40;;;1.37;;
24147;SDS011;12309;51.450;-2.624;2023-03-31T14:14:05;13.63;;;2.13;;
24147;SDS011;12309;51.450;-2.624;2023-03-31T14:16:32;9.03;;;1.43;;
24147;SDS011;12309;51.450;-2.624;2023-03-31T14:21:57;9.17;;;2.03;;
24147;SDS011;12309;51.450;-2.624;2023-03-31T14:30:25;14.97;;;2.03;;
24147;SDS011;12309;51.450;-2.624;2023-03-31T14:35:48;16.23;;;2.23;;
24147;SDS011;12309;51.450;-2.624;2023-03-31T14:38:22;12.10;;;2.00;;
24147;SDS011;12309;51.450;-2.624;2023-03-31T14:40:49;8.57;;;1.90;;
24147;SDS011;12309;51.450;-2.624;2023-03-31T14:43:26;12.20;;;2.00;;
24147;SDS011;12309;51.450;-2.624;2023-03-31T14:46:01;10.73;;;1.53;;
24147;SDS011;12309;51.450;-2.624;2023-03-31T14:48:28;18.17;;;1.90;;
24147;SDS011;12309;51.450;-2.624;2023-03-31T14:50:57;11.40;;;1.90;;
24147;SDS011;12309;51.450;-2.624;2023-03-31T14:53:26;11.27;;;2.03;;
24147;SDS011;12309;51.450;-2.624;2023-03-31T14:56:13;10.07;;;1.63;;
24147;SDS011;12309;51.450;-2.624;2023-03-31T14:58:41;11.13;;;1.77;;
24147;SDS011;12309;51.450;-2.624;2023-03-31T15:01:13;11.50;;;1.40;;
24147;SDS011;12309;51.450;-2.624;2023-03-31T15:03:41;8.43;;;1.47;;
24147;SDS011;12309;51.450;-2.624;2023-03-31T15:06:08;7.33;;;1.30;;
24147;SDS011;12309;51.450;-2.624;2023-03-31T15:08:35;9.63;;;1.53;;
24147;SDS011;12309;51.450;-2.624;2023-03-31T15:11:03;6.37;;;1.57;;
24147;SDS011;12309;51.450;-2.624;2023-03-31T15:13:42;8.00;;;1.00;;
24147;SDS011;12309;51.450;-2.624;2023-03-31T15:16:29;7.87;;;1.53;;
24147;SDS011;12309;51.450;-2.624;2023-03-31T15:18:56;8.33;;;1.50;;
24147;SDS011;12309;51.450;-2.624;2023-03-31T15:21:24;6.73;;;1.47;;
24147;SDS011;12309;51.450;-2.624;2023-03-31T15:23:55;13.10;;;1.47;;
24147;SDS011;12309;51.450;-2.624;2023-03-31T15:26:27;6.67;;;1.67;;
24147;SDS011;12309;51.450;-2.624;2023-03-31T15:28:58;6.57;;;1.93;;
24147;SDS011;12309;51.450;-2.624;2023-03-31T15:31:30;12.23;;;1.70;;
24147;SDS011;12309;51.450;-2.624;2023-03-31T15:33:57;6.97;;;1.60;;
24147;SDS011;12309;51.450;-2.624;2023-03-31T15:36:31;6.73;;;1.77;;
24147;SDS011;12309;51.450;-2.624;2023-03-31T15:38:57;6.80;;;1.40;;
24147;SDS011;12309;51.450;-2.624;2023-03-31T15:41:23;12.10;;;2.17;;
24147;SDS011;12309;51.450;-2.624;2023-03-31T15:44:04;11.83;;;1.73;;
24147;SDS011;12309;51.450;-2.624;2023-03-31T15:49:05;5.63;;;1.13;;
24147;SDS011;12309;51.450;-2.624;2023-03-31T15:51:47;8.17;;;1.60;;
24147;SDS011;12309;51.450;-2.624;2023-03-31T15:57:05;5.87;;;1.27;;
24147;SDS011;12309;51.450;-2.624;2023-03-31T15:59:45;5.23;;;1.27;;
24147;SDS011;12309;51.450;-2.624;2023-03-31T16:02:15;5.90;;;1.10;;
24147;SDS011;12309;51.450;-2.624;2023-03-31T16:04:46;7.63;;;1.20;;
24147;SDS011;12309;51.450;-2.624;2023-03-31T16:07:18;10.47;;;1.27;;
24147;SDS011;12309;51.450;-2.624;2023-03-31T16:12:30;7.40;;;1.43;;
24147;SDS011;12309;51.450;-2.624;2023-03-31T16:15:13;9.43;;;1.70;;
24147;SDS011;12309;51.450;-2.624;2023-03-31T16:17:52;14.03;;;2.20;;
24147;SDS011;12309;51.450;-2.624;2023-03-31T16:20:28;10.10;;;1.60;;
24147;SDS011;12309;51.450;-2.624;2023-03-31T16:23:20;10.93;;;1.53;;
24147;SDS011;12309;51.450;-2.624;2023-03-31T16:25:48;5.50;;;0.90;;
24147;SDS011;12309;51.450;-2.624;2023-03-31T16:28:14;6.43;;;1.30;;
24147;SDS011;12309;51.450;-2.624;2023-03-31T16:30:43;7.67;;;1.67;;
24147;SDS011;12309;51.450;-2.624;2023-03-31T16:33:11;6.77;;;1.20;;
24147;SDS011;12309;51.450;-2.624;2023-03-31T16:35:45;4.03;;;1.13;;
24147;SDS011;12309;51.450;-2.624;2023-03-31T16:38:14;9.27;;;1.50;;
24147;SDS011;12309;51.450;-2.624;2023-03-31T16:40:44;10.23;;;1.30;;
24147;SDS011;12309;51.450;-2.624;2023-03-31T16:45:50;9.57;;;1.60;;
24147;SDS011;12309;51.450;-2.624;2023-03-31T16:48:22;8.03;;;1.33;;
24147;SDS011;12309;51.450;-2.624;2023-03-31T16:50:49;6.87;;;1.20;;
24147;SDS011;12309;51.450;-2.624;2023-03-31T16:53:18;11.47;;;1.83;;
24147;SDS011;12309;51.450;-2.624;2023-03-31T16:55:46;7.53;;;1.53;;
24147;SDS011;12309;51.450;-2.624;2023-03-31T16:58:12;13.27;;;1.73;;
24147;SDS011;12309;51.450;-2.624;2023-03-31T17:00:38;6.67;;;1.13;;
24147;SDS011;12309;51.450;-2.624;2023-03-31T17:03:05;11.07;;;1.70;;
24147;SDS011;12309;51.450;-2.624;2023-03-31T17:05:36;8.73;;;1.33;;
24147;SDS011;12309;51.450;-2.624;2023-03-31T17:08:03;8.80;;;1.47;;
24147;SDS011;12309;51.450;-2.624;2023-03-31T17:10:28;9.87;;;2.00;;
24147;SDS011;12309;51.450;-2.624;2023-03-31T17:12:54;12.33;;;2.30;;
24147;SDS011;12309;51.450;-2.624;2023-03-31T17:15:20;8.50;;;1.80;;
24147;SDS011;12309;51.450;-2.624;2023-03-31T17:17:47;9.00;;;1.83;;
24147;SDS011;12309;51.450;-2.624;2023-03-31T17:20:13;13.47;;;2.20;;
24147;SDS011;12309;51.450;-2.624;2023-03-31T17:22:38;9.27;;;2.00;;
24147;SDS011;12309;51.450;-2.624;2023-03-31T17:25:04;10.60;;;1.60;;
24147;SDS011;12309;51.450;-2.624;2023-03-31T17:27:32;7.07;;;1.93;;
24147;SDS011;12309;51.450;-2.624;2023-03-31T17:29:58;10.33;;;1.87;;
24147;SDS011;12309;51.450;-2.624;2023-03-31T17:32:23;8.50;;;1.60;;
24147;SDS011;12309;51.450;-2.624;2023-03-31T17:34:49;9.23;;;2.07;;
24147;SDS011;12309;51.450;-2.624;2023-03-31T17:37:15;10.17;;;2.03;;
24147;SDS011;12309;51.450;-2.624;2023-03-31T17:39:42;6.43;;;1.87;;
24147;SDS011;12309;51.450;-2.624;2023-03-31T17:42:08;9.30;;;1.63;;
24147;SDS011;12309;51.450;-2.624;2023-03-31T17:44:35;9.83;;;2.07;;
24147;SDS011;12309;51.450;-2.624;2023-03-31T17:47:01;7.17;;;1.67;;
24147;SDS011;12309;51.450;-2.624;2023-03-31T17:49:27;9.93;;;2.07;;
24147;SDS011;12309;51.450;-2.624;2023-03-31T17:51:53;16.07;;;1.97;;
24147;SDS011;12309;51.450;-2.624;2023-03-31T17:54:19;12.20;;;2.30;;
24147;SDS011;12309;51.450;-2.624;2023-03-31T17:56:44;9.93;;;1.90;;
24147;SDS011;12309;51.450;-2.624;2023-03-31T17:59:14;9.50;;;1.97;;